sensor_id;sensor_type;location;lat;lon;timestamp;pressure;altitude;pressure_sealevel;temperature
80422;BMP280;69763;50.182;9.144;2024-03-07T00:02:06;100663.34;;;0.22
80422;BMP280;69763;50.182;9.144;2024-03-07T00:04:32;100665.19;;;0.25
80422;BMP280;69763;50.182;9.144;2024-03-07T00:06:57;100668.31;;;0.36
80422;BMP280;69763;50.182;9.144;2024-03-07T00:09:24;100669.22;;;0.46
80422;BMP280;69763;50.182;9.144;2024-03-07T00:11:49;100674.47;;;0.49
80422;BMP280;69763;50.182;9.144;2024-03-07T00:14:15;100672.78;;;0.55
80422;BMP280;69763;50.182;9.144;2024-03-07T00:16:40;100666.47;;;0.62
80422;BMP280;69763;50.182;9.144;2024-03-07T00:19:05;100675.44;;;0.55
80422;BMP280;69763;50.182;9.144;2024-03-07T00:21:31;100671.94;;;0.58
80422;BMP280;69763;50.182;9.144;2024-03-07T00:23:56;100669.69;;;0.57
80422;BMP280;69763;50.182;9.144;2024-03-07T00:26:23;100672.03;;;0.55
80422;BMP280;69763;50.182;9.144;2024-03-07T00:28:48;100672.34;;;0.57
80422;BMP280;69763;50.182;9.144;2024-03-07T00:31:13;100674.19;;;0.60
80422;BMP280;69763;50.182;9.144;2024-03-07T00:33:39;100677.69;;;0.57
80422;BMP280;69763;50.182;9.144;2024-03-07T00:36:05;100680.22;;;0.48
80422;BMP280;69763;50.182;9.144;2024-03-07T00:38:31;100681.13;;;0.41
80422;BMP280;69763;50.182;9.144;2024-03-07T00:40:56;100673.03;;;0.45
80422;BMP280;69763;50.182;9.144;2024-03-07T00:43:23;100669.63;;;0.44
80422;BMP280;69763;50.182;9.144;2024-03-07T00:45:48;100675.31;;;0.30
80422;BMP280;69763;50.182;9.144;2024-03-07T00:48:13;100673.94;;;0.09
80422;BMP280;69763;50.182;9.144;2024-03-07T00:50:39;100672.31;;;-0.01
80422;BMP280;69763;50.182;9.144;2024-03-07T00:53:04;100669.06;;;0.08
80422;BMP280;69763;50.182;9.144;2024-03-07T00:55:29;100667.03;;;0.12
80422;BMP280;69763;50.182;9.144;2024-03-07T00:57:55;100661.78;;;0.08
80422;BMP280;69763;50.182;9.144;2024-03-07T01:00:22;100662.38;;;0.16
80422;BMP280;69763;50.182;9.144;2024-03-07T01:02:47;100661.28;;;0.13
80422;BMP280;69763;50.182;9.144;2024-03-07T01:05:13;100654.66;;;0.05
80422;BMP280;69763;50.182;9.144;2024-03-07T01:07:38;100654.00;;;-0.15
80422;BMP280;69763;50.182;9.144;2024-03-07T01:10:04;100665.75;;;-0.29
80422;BMP280;69763;50.182;9.144;2024-03-07T01:12:30;100651.16;;;-0.41
80422;BMP280;69763;50.182;9.144;2024-03-07T01:14:55;100653.75;;;-0.37
80422;BMP280;69763;50.182;9.144;2024-03-07T01:17:22;100648.16;;;-0.43
80422;BMP280;69763;50.182;9.144;2024-03-07T01:19:47;100648.94;;;-0.26
80422;BMP280;69763;50.182;9.144;2024-03-07T01:22:13;100652.09;;;-0.15
80422;BMP280;69763;50.182;9.144;2024-03-07T01:24:38;100639.06;;;-0.13
80422;BMP280;69763;50.182;9.144;2024-03-07T01:27:03;100640.25;;;0.02
80422;BMP280;69763;50.182;9.144;2024-03-07T01:29:29;100634.28;;;0.11
80422;BMP280;69763;50.182;9.144;2024-03-07T01:31:54;100636.13;;;0.14
80422;BMP280;69763;50.182;9.144;2024-03-07T01:34:21;100641.22;;;0.09
80422;BMP280;69763;50.182;9.144;2024-03-07T01:36:46;100640.16;;;0.06
80422;BMP280;69763;50.182;9.144;2024-03-07T01:39:12;100637.16;;;-0.12
80422;BMP280;69763;50.182;9.144;2024-03-07T01:41:37;100640.59;;;-0.28
80422;BMP280;69763;50.182;9.144;2024-03-07T01:44:02;100639.25;;;-0.36
80422;BMP280;69763;50.182;9.144;2024-03-07T01:46:29;100631.88;;;-0.45
80422;BMP280;69763;50.182;9.144;2024-03-07T01:48:55;100631.94;;;-0.48
80422;BMP280;69763;50.182;9.144;2024-03-07T01:51:22;100632.53;;;-0.57
80422;BMP280;69763;50.182;9.144;2024-03-07T01:53:47;100630.69;;;-0.44
80422;BMP280;69763;50.182;9.144;2024-03-07T01:56:13;100625.03;;;-0.46
80422;BMP280;69763;50.182;9.144;2024-03-07T01:58:38;100623.19;;;-0.33
80422;BMP280;69763;50.182;9.144;2024-03-07T02:01:05;100623.78;;;-0.25
80422;BMP280;69763;50.182;9.144;2024-03-07T02:03:30;100627.13;;;-0.21
80422;BMP280;69763;50.182;9.144;2024-03-07T02:05:56;100623.88;;;-0.28
80422;BMP280;69763;50.182;9.144;2024-03-07T02:08:23;100625.69;;;-0.42
80422;BMP280;69763;50.182;9.144;2024-03-07T02:10:48;100620.88;;;-0.47
80422;BMP280;69763;50.182;9.144;2024-03-07T02:13:14;100616.53;;;-0.41
80422;BMP280;69763;50.182;9.144;2024-03-07T02:15:39;100619.38;;;-0.48
80422;BMP280;69763;50.182;9.144;2024-03-07T02:18:05;100612.22;;;-0.51
80422;BMP280;69763;50.182;9.144;2024-03-07T02:20:30;100611.81;;;-0.49
80422;BMP280;69763;50.182;9.144;2024-03-07T02:22:57;100612.63;;;-0.52
80422;BMP280;69763;50.182;9.144;2024-03-07T02:25:22;100616.63;;;-0.60
80422;BMP280;69763;50.182;9.144;2024-03-07T02:27:47;100618.13;;;-0.76
80422;BMP280;69763;50.182;9.144;2024-03-07T02:30:13;100611.09;;;-1.02
80422;BMP280;69763;50.182;9.144;2024-03-07T02:32:39;100609.19;;;-1.21
80422;BMP280;69763;50.182;9.144;2024-03-07T02:35:05;100604.75;;;-1.28
80422;BMP280;69763;50.182;9.144;2024-03-07T02:37:31;100609.31;;;-1.28
80422;BMP280;69763;50.182;9.144;2024-03-07T02:39:57;100612.66;;;-1.24
80422;BMP280;69763;50.182;9.144;2024-03-07T02:42:23;100609.94;;;-1.21
80422;BMP280;69763;50.182;9.144;2024-03-07T02:44:48;100604.69;;;-1.24
80422;BMP280;69763;50.182;9.144;2024-03-07T02:47:14;100617.78;;;-1.34
80422;BMP280;69763;50.182;9.144;2024-03-07T02:49:39;100612.00;;;-1.48
80422;BMP280;69763;50.182;9.144;2024-03-07T02:52:05;100612.88;;;-1.55
80422;BMP280;69763;50.182;9.144;2024-03-07T02:54:30;100608.31;;;-1.54
80422;BMP280;69763;50.182;9.144;2024-03-07T02:56:57;100604.91;;;-1.35
80422;BMP280;69763;50.182;9.144;2024-03-07T02:59:22;100600.53;;;-1.25
80422;BMP280;69763;50.182;9.144;2024-03-07T03:01:48;100605.16;;;-1.29
80422;BMP280;69763;50.182;9.144;2024-03-07T03:04:13;100591.53;;;-1.32
80422;BMP280;69763;50.182;9.144;2024-03-07T03:06:38;100598.69;;;-1.28
80422;BMP280;69763;50.182;9.144;2024-03-07T03:09:04;100595.63;;;-1.27
80422;BMP280;69763;50.182;9.144;2024-03-07T03:11:29;100589.88;;;-1.25
80422;BMP280;69763;50.182;9.144;2024-03-07T03:13:56;100596.16;;;-1.16
80422;BMP280;69763;50.182;9.144;2024-03-07T03:16:21;100591.84;;;-1.10
80422;BMP280;69763;50.182;9.144;2024-03-07T03:18:46;100587.78;;;-1.14
80422;BMP280;69763;50.182;9.144;2024-03-07T03:21:12;100585.44;;;-1.12
80422;BMP280;69763;50.182;9.144;2024-03-07T03:23:37;100587.69;;;-1.11
80422;BMP280;69763;50.182;9.144;2024-03-07T03:26:03;100586.13;;;-1.08
80422;BMP280;69763;50.182;9.144;2024-03-07T03:28:28;100589.38;;;-1.01
80422;BMP280;69763;50.182;9.144;2024-03-07T03:30:55;100590.56;;;-1.02
80422;BMP280;69763;50.182;9.144;2024-03-07T03:33:20;100587.97;;;-1.05
80422;BMP280;69763;50.182;9.144;2024-03-07T03:35:46;100584.97;;;-1.07
80422;BMP280;69763;50.182;9.144;2024-03-07T03:38:11;100588.31;;;-1.03
80422;BMP280;69763;50.182;9.144;2024-03-07T03:40:36;100585.09;;;-1.14
80422;BMP280;69763;50.182;9.144;2024-03-07T03:43:02;100585.66;;;-1.23
80422;BMP280;69763;50.182;9.144;2024-03-07T03:45:27;100582.94;;;-1.19
80422;BMP280;69763;50.182;9.144;2024-03-07T03:47:54;100583.41;;;-1.24
80422;BMP280;69763;50.182;9.144;2024-03-07T03:50:20;100583.13;;;-1.30
80422;BMP280;69763;50.182;9.144;2024-03-07T03:52:46;100582.06;;;-1.33
80422;BMP280;69763;50.182;9.144;2024-03-07T03:55:11;100581.91;;;-1.25
80422;BMP280;69763;50.182;9.144;2024-03-07T03:57:38;100579.25;;;-1.25
80422;BMP280;69763;50.182;9.144;2024-03-07T04:00:05;100583.22;;;-1.34
80422;BMP280;69763;50.182;9.144;2024-03-07T04:02:30;100577.22;;;-1.38
80422;BMP280;69763;50.182;9.144;2024-03-07T04:04:57;100581.91;;;-1.45
80422;BMP280;69763;50.182;9.144;2024-03-07T04:07:22;100583.75;;;-1.42
80422;BMP280;69763;50.182;9.144;2024-03-07T04:09:48;100583.81;;;-1.46
80422;BMP280;69763;50.182;9.144;2024-03-07T04:12:13;100580.75;;;-1.44
80422;BMP280;69763;50.182;9.144;2024-03-07T04:14:39;100579.41;;;-1.52
80422;BMP280;69763;50.182;9.144;2024-03-07T04:17:05;100583.63;;;-1.55
80422;BMP280;69763;50.182;9.144;2024-03-07T04:19:30;100588.22;;;-1.55
80422;BMP280;69763;50.182;9.144;2024-03-07T04:21:57;100586.47;;;-1.46
80422;BMP280;69763;50.182;9.144;2024-03-07T04:24:22;100580.09;;;-1.48
80422;BMP280;69763;50.182;9.144;2024-03-07T04:26:47;100578.16;;;-1.48
80422;BMP280;69763;50.182;9.144;2024-03-07T04:29:13;100588.16;;;-1.52
80422;BMP280;69763;50.182;9.144;2024-03-07T04:31:38;100587.53;;;-1.59
80422;BMP280;69763;50.182;9.144;2024-03-07T04:34:03;100584.59;;;-1.65
80422;BMP280;69763;50.182;9.144;2024-03-07T04:36:29;100582.28;;;-1.63
80422;BMP280;69763;50.182;9.144;2024-03-07T04:38:55;100581.06;;;-1.58
80422;BMP280;69763;50.182;9.144;2024-03-07T04:41:21;100585.00;;;-1.67
80422;BMP280;69763;50.182;9.144;2024-03-07T04:43:46;100572.13;;;-1.68
80422;BMP280;69763;50.182;9.144;2024-03-07T04:46:11;100575.53;;;-1.68
80422;BMP280;69763;50.182;9.144;2024-03-07T04:48:37;100576.16;;;-1.80
80422;BMP280;69763;50.182;9.144;2024-03-07T04:51:03;100577.09;;;-1.90
80422;BMP280;69763;50.182;9.144;2024-03-07T04:53:28;100577.84;;;-1.89
80422;BMP280;69763;50.182;9.144;2024-03-07T04:55:55;100588.59;;;-1.96
80422;BMP280;69763;50.182;9.144;2024-03-07T04:58:20;100579.00;;;-1.90
80422;BMP280;69763;50.182;9.144;2024-03-07T05:00:45;100578.31;;;-1.94
80422;BMP280;69763;50.182;9.144;2024-03-07T05:03:11;100577.16;;;-1.93
80422;BMP280;69763;50.182;9.144;2024-03-07T05:05:36;100572.25;;;-1.95
80422;BMP280;69763;50.182;9.144;2024-03-07T05:08:02;100585.41;;;-1.88
80422;BMP280;69763;50.182;9.144;2024-03-07T05:10:27;100583.31;;;-1.77
80422;BMP280;69763;50.182;9.144;2024-03-07T05:12:54;100586.44;;;-1.62
80422;BMP280;69763;50.182;9.144;2024-03-07T05:15:19;100578.66;;;-1.53
80422;BMP280;69763;50.182;9.144;2024-03-07T05:17:45;100580.63;;;-1.37
80422;BMP280;69763;50.182;9.144;2024-03-07T05:20:10;100577.47;;;-1.32
80422;BMP280;69763;50.182;9.144;2024-03-07T05:22:36;100583.41;;;-1.24
80422;BMP280;69763;50.182;9.144;2024-03-07T05:25:01;100578.16;;;-1.28
80422;BMP280;69763;50.182;9.144;2024-03-07T05:27:27;100579.25;;;-1.25
80422;BMP280;69763;50.182;9.144;2024-03-07T05:29:53;100581.84;;;-1.22
80422;BMP280;69763;50.182;9.144;2024-03-07T05:32:20;100583.75;;;-1.22
80422;BMP280;69763;50.182;9.144;2024-03-07T05:34:46;100580.34;;;-1.23
80422;BMP280;69763;50.182;9.144;2024-03-07T05:37:11;100578.78;;;-1.20
80422;BMP280;69763;50.182;9.144;2024-03-07T05:39:36;100585.84;;;-1.14
80422;BMP280;69763;50.182;9.144;2024-03-07T05:42:02;100575.75;;;-1.03
80422;BMP280;69763;50.182;9.144;2024-03-07T05:44:27;100579.91;;;-1.02
80422;BMP280;69763;50.182;9.144;2024-03-07T05:46:54;100580.41;;;-1.07
80422;BMP280;69763;50.182;9.144;2024-03-07T05:49:19;100586.59;;;-1.13
80422;BMP280;69763;50.182;9.144;2024-03-07T05:51:45;100581.78;;;-1.18
80422;BMP280;69763;50.182;9.144;2024-03-07T05:54:10;100585.94;;;-1.17
80422;BMP280;69763;50.182;9.144;2024-03-07T05:56:36;100590.78;;;-1.12
80422;BMP280;69763;50.182;9.144;2024-03-07T05:59:01;100590.28;;;-1.07
80422;BMP280;69763;50.182;9.144;2024-03-07T06:01:27;100590.28;;;-1.07
80422;BMP280;69763;50.182;9.144;2024-03-07T06:03:53;100596.69;;;-1.05
80422;BMP280;69763;50.182;9.144;2024-03-07T06:06:19;100591.38;;;-1.05
80422;BMP280;69763;50.182;9.144;2024-03-07T06:08:44;100584.47;;;-1.02
80422;BMP280;69763;50.182;9.144;2024-03-07T06:11:10;100585.56;;;-1.00
80422;BMP280;69763;50.182;9.144;2024-03-07T06:13:35;100586.22;;;-0.95
80422;BMP280;69763;50.182;9.144;2024-03-07T06:16:00;100586.47;;;-0.90
80422;BMP280;69763;50.182;9.144;2024-03-07T06:18:26;100592.81;;;-0.84
80422;BMP280;69763;50.182;9.144;2024-03-07T06:20:53;100591.50;;;-0.76
80422;BMP280;69763;50.182;9.144;2024-03-07T06:23:18;100595.41;;;-0.64
80422;BMP280;69763;50.182;9.144;2024-03-07T06:25:44;100587.16;;;-0.53
80422;BMP280;69763;50.182;9.144;2024-03-07T06:28:09;100590.72;;;-0.44
80422;BMP280;69763;50.182;9.144;2024-03-07T06:30:35;100592.81;;;-0.35
80422;BMP280;69763;50.182;9.144;2024-03-07T06:33:00;100592.97;;;-0.26
80422;BMP280;69763;50.182;9.144;2024-03-07T06:35:26;100586.63;;;-0.16
80422;BMP280;69763;50.182;9.144;2024-03-07T06:37:52;100581.84;;;-0.08
80422;BMP280;69763;50.182;9.144;2024-03-07T06:40:18;100575.78;;;-0.09
80422;BMP280;69763;50.182;9.144;2024-03-07T06:42:43;100573.00;;;-0.18
80422;BMP280;69763;50.182;9.144;2024-03-07T06:45:09;100578.16;;;-0.27
80422;BMP280;69763;50.182;9.144;2024-03-07T06:47:34;100581.91;;;-0.41
80422;BMP280;69763;50.182;9.144;2024-03-07T06:49:59;100576.09;;;-0.52
80422;BMP280;69763;50.182;9.144;2024-03-07T06:52:25;100580.09;;;-0.60
80422;BMP280;69763;50.182;9.144;2024-03-07T06:54:51;100575.59;;;-0.63
80422;BMP280;69763;50.182;9.144;2024-03-07T06:57:17;100574.69;;;-0.56
80422;BMP280;69763;50.182;9.144;2024-03-07T06:59:42;100574.94;;;-0.51
80422;BMP280;69763;50.182;9.144;2024-03-07T07:02:09;100577.75;;;-0.42
80422;BMP280;69763;50.182;9.144;2024-03-07T07:04:35;100579.91;;;-0.37
80422;BMP280;69763;50.182;9.144;2024-03-07T07:07:00;100584.31;;;-0.30
80422;BMP280;69763;50.182;9.144;2024-03-07T07:09:25;100574.31;;;-0.26
80422;BMP280;69763;50.182;9.144;2024-03-07T07:11:52;100580.72;;;-0.23
80422;BMP280;69763;50.182;9.144;2024-03-07T07:14:17;100584.81;;;-0.19
80422;BMP280;69763;50.182;9.144;2024-03-07T07:16:43;100575.66;;;-0.18
80422;BMP280;69763;50.182;9.144;2024-03-07T07:19:08;100579.28;;;-0.12
80422;BMP280;69763;50.182;9.144;2024-03-07T07:21:34;100579.09;;;-0.05
80422;BMP280;69763;50.182;9.144;2024-03-07T07:23:59;100581.38;;;0.10
80422;BMP280;69763;50.182;9.144;2024-03-07T07:26:24;100585.38;;;0.18
80422;BMP280;69763;50.182;9.144;2024-03-07T07:28:51;100585.94;;;0.25
80422;BMP280;69763;50.182;9.144;2024-03-07T07:31:16;100586.47;;;0.33
80422;BMP280;69763;50.182;9.144;2024-03-07T07:33:42;100589.69;;;0.41
80422;BMP280;69763;50.182;9.144;2024-03-07T07:36:07;100591.75;;;0.49
80422;BMP280;69763;50.182;9.144;2024-03-07T07:38:33;100592.19;;;0.60
80422;BMP280;69763;50.182;9.144;2024-03-07T07:40:58;100595.28;;;0.71
80422;BMP280;69763;50.182;9.144;2024-03-07T07:43:23;100589.97;;;0.84
80422;BMP280;69763;50.182;9.144;2024-03-07T07:45:50;100587.31;;;0.97
80422;BMP280;69763;50.182;9.144;2024-03-07T07:48:16;100594.44;;;1.13
80422;BMP280;69763;50.182;9.144;2024-03-07T07:50:41;100590.38;;;1.33
80422;BMP280;69763;50.182;9.144;2024-03-07T07:53:06;100589.25;;;1.56
80422;BMP280;69763;50.182;9.144;2024-03-07T07:55:32;100585.09;;;1.77
80422;BMP280;69763;50.182;9.144;2024-03-07T07:57:58;100592.41;;;1.98
80422;BMP280;69763;50.182;9.144;2024-03-07T08:00:25;100584.22;;;2.15
80422;BMP280;69763;50.182;9.144;2024-03-07T08:02:52;100594.88;;;2.36
80422;BMP280;69763;50.182;9.144;2024-03-07T08:05:18;100596.53;;;2.65
80422;BMP280;69763;50.182;9.144;2024-03-07T08:07:44;100606.13;;;2.93
80422;BMP280;69763;50.182;9.144;2024-03-07T08:10:10;100608.00;;;3.33
80422;BMP280;69763;50.182;9.144;2024-03-07T08:12:35;100613.53;;;3.47
80422;BMP280;69763;50.182;9.144;2024-03-07T08:15:00;100620.84;;;3.74
80422;BMP280;69763;50.182;9.144;2024-03-07T08:17:26;100621.59;;;3.93
80422;BMP280;69763;50.182;9.144;2024-03-07T08:19:52;100629.47;;;4.15
80422;BMP280;69763;50.182;9.144;2024-03-07T08:22:18;100634.22;;;4.29
80422;BMP280;69763;50.182;9.144;2024-03-07T08:24:43;100633.41;;;4.47
80422;BMP280;69763;50.182;9.144;2024-03-07T08:27:09;100637.84;;;4.59
80422;BMP280;69763;50.182;9.144;2024-03-07T08:29:34;100630.09;;;4.61
80422;BMP280;69763;50.182;9.144;2024-03-07T08:31:59;100644.59;;;4.87
80422;BMP280;69763;50.182;9.144;2024-03-07T08:34:25;100635.47;;;4.94
80422;BMP280;69763;50.182;9.144;2024-03-07T08:36:51;100645.50;;;4.84
80422;BMP280;69763;50.182;9.144;2024-03-07T08:39:17;100641.53;;;4.71
80422;BMP280;69763;50.182;9.144;2024-03-07T08:41:42;100638.03;;;4.46
80422;BMP280;69763;50.182;9.144;2024-03-07T08:44:07;100633.00;;;4.30
80422;BMP280;69763;50.182;9.144;2024-03-07T08:46:33;100638.22;;;4.34
80422;BMP280;69763;50.182;9.144;2024-03-07T08:48:58;100638.81;;;4.38
80422;BMP280;69763;50.182;9.144;2024-03-07T08:51:23;100633.72;;;4.40
80422;BMP280;69763;50.182;9.144;2024-03-07T08:53:50;100644.31;;;4.43
80422;BMP280;69763;50.182;9.144;2024-03-07T08:56:16;100636.25;;;4.34
80422;BMP280;69763;50.182;9.144;2024-03-07T08:58:41;100638.66;;;4.41
80422;BMP280;69763;50.182;9.144;2024-03-07T09:01:06;100633.81;;;4.63
80422;BMP280;69763;50.182;9.144;2024-03-07T09:03:32;100641.94;;;4.78
80422;BMP280;69763;50.182;9.144;2024-03-07T09:05:57;100634.22;;;5.04
80422;BMP280;69763;50.182;9.144;2024-03-07T09:08:22;100639.78;;;5.24
80422;BMP280;69763;50.182;9.144;2024-03-07T09:10:49;100634.75;;;5.32
80422;BMP280;69763;50.182;9.144;2024-03-07T09:13:14;100641.84;;;5.44
80422;BMP280;69763;50.182;9.144;2024-03-07T09:15:40;100636.94;;;5.66
80422;BMP280;69763;50.182;9.144;2024-03-07T09:18:05;100637.19;;;5.68
80422;BMP280;69763;50.182;9.144;2024-03-07T09:20:31;100631.53;;;5.81
80422;BMP280;69763;50.182;9.144;2024-03-07T09:22:56;100638.88;;;5.81
80422;BMP280;69763;50.182;9.144;2024-03-07T09:25:21;100638.41;;;5.82
80422;BMP280;69763;50.182;9.144;2024-03-07T09:27:48;100633.59;;;5.86
80422;BMP280;69763;50.182;9.144;2024-03-07T09:30:13;100625.44;;;5.95
80422;BMP280;69763;50.182;9.144;2024-03-07T09:32:39;100629.91;;;6.13
80422;BMP280;69763;50.182;9.144;2024-03-07T09:35:05;100629.97;;;6.33
80422;BMP280;69763;50.182;9.144;2024-03-07T09:37:31;100628.94;;;6.45
80422;BMP280;69763;50.182;9.144;2024-03-07T09:39:56;100626.25;;;6.45
80422;BMP280;69763;50.182;9.144;2024-03-07T09:42:23;100625.50;;;6.60
80422;BMP280;69763;50.182;9.144;2024-03-07T09:44:52;100616.78;;;6.50
80422;BMP280;69763;50.182;9.144;2024-03-07T09:47:18;100612.59;;;6.49
80422;BMP280;69763;50.182;9.144;2024-03-07T09:49:45;100617.94;;;6.78
80422;BMP280;69763;50.182;9.144;2024-03-07T09:52:11;100620.81;;;6.95
80422;BMP280;69763;50.182;9.144;2024-03-07T09:54:38;100625.13;;;6.87
80422;BMP280;69763;50.182;9.144;2024-03-07T09:57:05;100619.41;;;7.00
80422;BMP280;69763;50.182;9.144;2024-03-07T09:59:34;100608.22;;;7.27
80422;BMP280;69763;50.182;9.144;2024-03-07T10:02:03;100610.00;;;7.36
80422;BMP280;69763;50.182;9.144;2024-03-07T10:04:37;100610.78;;;7.62
80422;BMP280;69763;50.182;9.144;2024-03-07T10:07:03;100610.78;;;7.93
80422;BMP280;69763;50.182;9.144;2024-03-07T10:09:29;100609.50;;;8.15
80422;BMP280;69763;50.182;9.144;2024-03-07T10:11:57;100607.44;;;8.35
80422;BMP280;69763;50.182;9.144;2024-03-07T10:14:23;100603.38;;;8.57
80422;BMP280;69763;50.182;9.144;2024-03-07T10:16:48;100601.25;;;8.72
80422;BMP280;69763;50.182;9.144;2024-03-07T10:19:15;100604.47;;;8.76
80422;BMP280;69763;50.182;9.144;2024-03-07T10:21:40;100595.84;;;8.66
80422;BMP280;69763;50.182;9.144;2024-03-07T10:24:06;100595.78;;;8.61
80422;BMP280;69763;50.182;9.144;2024-03-07T10:26:33;100592.84;;;8.59
80422;BMP280;69763;50.182;9.144;2024-03-07T10:28:59;100589.63;;;8.55
80422;BMP280;69763;50.182;9.144;2024-03-07T10:31:28;100588.31;;;8.44
80422;BMP280;69763;50.182;9.144;2024-03-07T10:33:58;100590.53;;;8.40
80422;BMP280;69763;50.182;9.144;2024-03-07T10:36:25;100594.72;;;8.47
80422;BMP280;69763;50.182;9.144;2024-03-07T10:38:50;100584.34;;;8.34
80422;BMP280;69763;50.182;9.144;2024-03-07T10:41:16;100585.84;;;8.35
80422;BMP280;69763;50.182;9.144;2024-03-07T10:43:43;100582.50;;;8.15
80422;BMP280;69763;50.182;9.144;2024-03-07T10:46:14;100580.94;;;8.02
80422;BMP280;69763;50.182;9.144;2024-03-07T10:48:42;100574.09;;;8.07
80422;BMP280;69763;50.182;9.144;2024-03-07T10:51:14;100566.97;;;8.46
80422;BMP280;69763;50.182;9.144;2024-03-07T10:53:52;100569.56;;;8.72
80422;BMP280;69763;50.182;9.144;2024-03-07T10:56:24;100563.69;;;8.74
80422;BMP280;69763;50.182;9.144;2024-03-07T10:58:58;100557.31;;;8.82
80422;BMP280;69763;50.182;9.144;2024-03-07T11:01:26;100555.31;;;8.77
80422;BMP280;69763;50.182;9.144;2024-03-07T11:03:53;100553.88;;;8.82
80422;BMP280;69763;50.182;9.144;2024-03-07T11:06:20;100553.13;;;8.93
80422;BMP280;69763;50.182;9.144;2024-03-07T11:08:47;100551.97;;;9.10
80422;BMP280;69763;50.182;9.144;2024-03-07T11:11:13;100540.63;;;9.01
80422;BMP280;69763;50.182;9.144;2024-03-07T11:13:39;100544.09;;;8.90
80422;BMP280;69763;50.182;9.144;2024-03-07T11:16:05;100548.00;;;9.00
80422;BMP280;69763;50.182;9.144;2024-03-07T11:18:31;100539.38;;;8.91
80422;BMP280;69763;50.182;9.144;2024-03-07T11:20:56;100534.53;;;9.17
80422;BMP280;69763;50.182;9.144;2024-03-07T11:23:25;100526.69;;;9.58
80422;BMP280;69763;50.182;9.144;2024-03-07T11:25:55;100525.44;;;9.87
80422;BMP280;69763;50.182;9.144;2024-03-07T11:28:28;100526.16;;;9.93
80422;BMP280;69763;50.182;9.144;2024-03-07T11:30:53;100529.38;;;9.69
80422;BMP280;69763;50.182;9.144;2024-03-07T11:33:19;100523.47;;;9.71
80422;BMP280;69763;50.182;9.144;2024-03-07T11:35:48;100514.34;;;9.96
80422;BMP280;69763;50.182;9.144;2024-03-07T11:38:14;100509.44;;;9.89
80422;BMP280;69763;50.182;9.144;2024-03-07T11:40:47;100513.16;;;9.63
80422;BMP280;69763;50.182;9.144;2024-03-07T11:43:16;100504.53;;;9.65
80422;BMP280;69763;50.182;9.144;2024-03-07T11:45:42;100500.59;;;9.55
80422;BMP280;69763;50.182;9.144;2024-03-07T11:48:07;100498.63;;;9.55
80422;BMP280;69763;50.182;9.144;2024-03-07T11:50:33;100483.88;;;9.68
80422;BMP280;69763;50.182;9.144;2024-03-07T11:52:59;100484.59;;;9.74
80422;BMP280;69763;50.182;9.144;2024-03-07T11:55:24;100491.22;;;9.84
80422;BMP280;69763;50.182;9.144;2024-03-07T11:57:50;100484.34;;;9.77
80422;BMP280;69763;50.182;9.144;2024-03-07T12:00:17;100476.22;;;9.60
80422;BMP280;69763;50.182;9.144;2024-03-07T12:02:43;100470.56;;;9.70
80422;BMP280;69763;50.182;9.144;2024-03-07T12:05:08;100468.75;;;10.00
80422;BMP280;69763;50.182;9.144;2024-03-07T12:07:34;100460.34;;;10.15
80422;BMP280;69763;50.182;9.144;2024-03-07T12:10:00;100465.19;;;10.33
80422;BMP280;69763;50.182;9.144;2024-03-07T12:12:25;100454.66;;;10.70
80422;BMP280;69763;50.182;9.144;2024-03-07T12:14:51;100454.19;;;10.61
80422;BMP280;69763;50.182;9.144;2024-03-07T12:17:18;100446.00;;;10.31
80422;BMP280;69763;50.182;9.144;2024-03-07T12:19:44;100446.34;;;10.05
80422;BMP280;69763;50.182;9.144;2024-03-07T12:22:13;100445.13;;;10.00
80422;BMP280;69763;50.182;9.144;2024-03-07T12:24:39;100441.22;;;9.96
80422;BMP280;69763;50.182;9.144;2024-03-07T12:27:05;100440.59;;;10.31
80422;BMP280;69763;50.182;9.144;2024-03-07T12:29:30;100433.56;;;10.46
80422;BMP280;69763;50.182;9.144;2024-03-07T12:31:56;100432.75;;;10.22
80422;BMP280;69763;50.182;9.144;2024-03-07T12:34:23;100429.75;;;10.25
80422;BMP280;69763;50.182;9.144;2024-03-07T12:36:48;100435.50;;;10.11
80422;BMP280;69763;50.182;9.144;2024-03-07T12:39:31;100429.38;;;9.99
80422;BMP280;69763;50.182;9.144;2024-03-07T12:41:57;100436.25;;;10.05
80422;BMP280;69763;50.182;9.144;2024-03-07T12:44:22;100431.84;;;10.02
80422;BMP280;69763;50.182;9.144;2024-03-07T12:46:48;100421.06;;;9.86
80422;BMP280;69763;50.182;9.144;2024-03-07T12:49:13;100426.00;;;9.87
80422;BMP280;69763;50.182;9.144;2024-03-07T12:51:40;100423.69;;;9.97
80422;BMP280;69763;50.182;9.144;2024-03-07T12:54:06;100417.13;;;9.87
80422;BMP280;69763;50.182;9.144;2024-03-07T12:56:31;100416.63;;;9.94
80422;BMP280;69763;50.182;9.144;2024-03-07T12:58:56;100417.88;;;9.87
80422;BMP280;69763;50.182;9.144;2024-03-07T13:01:22;100412.25;;;9.74
80422;BMP280;69763;50.182;9.144;2024-03-07T13:03:47;100410.47;;;9.88
80422;BMP280;69763;50.182;9.144;2024-03-07T13:06:13;100421.50;;;9.95
80422;BMP280;69763;50.182;9.144;2024-03-07T13:08:40;100406.31;;;9.76
80422;BMP280;69763;50.182;9.144;2024-03-07T13:11:06;100410.06;;;9.50
80422;BMP280;69763;50.182;9.144;2024-03-07T13:13:32;100409.63;;;9.24
80422;BMP280;69763;50.182;9.144;2024-03-07T13:15:57;100400.50;;;8.99
80422;BMP280;69763;50.182;9.144;2024-03-07T13:18:23;100413.78;;;8.92
80422;BMP280;69763;50.182;9.144;2024-03-07T13:20:48;100408.34;;;8.92
80422;BMP280;69763;50.182;9.144;2024-03-07T13:23:14;100409.38;;;8.83
80422;BMP280;69763;50.182;9.144;2024-03-07T13:25:40;100405.66;;;8.64
80422;BMP280;69763;50.182;9.144;2024-03-07T13:28:09;100406.63;;;8.61
80422;BMP280;69763;50.182;9.144;2024-03-07T13:30:35;100412.75;;;8.56
80422;BMP280;69763;50.182;9.144;2024-03-07T13:33:00;100412.22;;;8.52
80422;BMP280;69763;50.182;9.144;2024-03-07T13:35:26;100405.38;;;8.56
80422;BMP280;69763;50.182;9.144;2024-03-07T13:37:52;100409.84;;;8.70
80422;BMP280;69763;50.182;9.144;2024-03-07T13:40:17;100394.63;;;8.73
80422;BMP280;69763;50.182;9.144;2024-03-07T13:42:44;100403.16;;;8.60
80422;BMP280;69763;50.182;9.144;2024-03-07T13:45:09;100399.25;;;8.50
80422;BMP280;69763;50.182;9.144;2024-03-07T13:47:35;100401.22;;;8.61
80422;BMP280;69763;50.182;9.144;2024-03-07T13:50:00;100399.28;;;8.72
80422;BMP280;69763;50.182;9.144;2024-03-07T13:52:25;100399.03;;;8.76
80422;BMP280;69763;50.182;9.144;2024-03-07T13:54:51;100389.22;;;8.67
80422;BMP280;69763;50.182;9.144;2024-03-07T13:57:24;100388.22;;;8.70